Map

Track Data

SID SEASON NUMBER BASIN SUBBASIN NAME ISO_TIME NATURE LAT LON WMO_WIND WMO_PRES WMO_AGENCY TRACK_TYPE DIST2LAND LANDFALL IFLAG USA_AGENCY USA_ATCF_ID USA_LAT USA_LON USA_RECORD USA_STATUS USA_WIND USA_PRES USA_SSHS USA_R34_NE USA_R34_SE USA_R34_SW USA_R34_NW USA_R50_NE USA_R50_SE USA_R50_SW USA_R50_NW USA_R64_NE USA_R64_SE USA_R64_SW USA_R64_NW USA_POCI USA_ROCI USA_RMW USA_EYE TOKYO_LAT TOKYO_LON TOKYO_GRADE TOKYO_WIND TOKYO_PRES TOKYO_R50_DIR TOKYO_R50_LONG TOKYO_R50_SHORT TOKYO_R30_DIR TOKYO_R30_LONG TOKYO_R30_SHORT TOKYO_LAND CMA_LAT CMA_LON CMA_CAT CMA_WIND CMA_PRES HKO_LAT HKO_LON HKO_CAT HKO_WIND HKO_PRES NEWDELHI_LAT NEWDELHI_LON NEWDELHI_GRADE NEWDELHI_WIND NEWDELHI_PRES NEWDELHI_CI NEWDELHI_DP NEWDELHI_POCI REUNION_LAT REUNION_LON REUNION_TYPE REUNION_WIND REUNION_PRES REUNION_TNUM REUNION_CI REUNION_RMW REUNION_R34_NE REUNION_R34_SE REUNION_R34_SW REUNION_R34_NW REUNION_R50_NE REUNION_R50_SE REUNION_R50_SW REUNION_R50_NW REUNION_R64_NE REUNION_R64_SE REUNION_R64_SW REUNION_R64_NW BOM_LAT BOM_LON BOM_TYPE BOM_WIND BOM_PRES BOM_TNUM BOM_CI BOM_RMW BOM_R34_NE BOM_R34_SE BOM_R34_SW BOM_R34_NW BOM_R50_NE BOM_R50_SE BOM_R50_SW BOM_R50_NW BOM_R64_NE BOM_R64_SE BOM_R64_SW BOM_R64_NW BOM_ROCI BOM_POCI BOM_EYE BOM_POS_METHOD BOM_PRES_METHOD NADI_LAT NADI_LON NADI_CAT NADI_WIND NADI_PRES WELLINGTON_LAT WELLINGTON_LON WELLINGTON_WIND WELLINGTON_PRES DS824_LAT DS824_LON DS824_STAGE DS824_WIND DS824_PRES TD9636_LAT TD9636_LON TD9636_STAGE TD9636_WIND TD9636_PRES TD9635_LAT TD9635_LON TD9635_WIND TD9635_PRES TD9635_ROCI NEUMANN_LAT NEUMANN_LON NEUMANN_CLASS NEUMANN_WIND NEUMANN_PRES MLC_LAT MLC_LON MLC_CLASS MLC_WIND MLC_PRES USA_GUST BOM_GUST BOM_GUST_PER REUNION_GUST REUNION_GUST_PER USA_SEAHGT USA_SEARAD_NE USA_SEARAD_SE USA_SEARAD_SW USA_SEARAD_NW STORM_SPEED STORM_DIR
2019286N20197 2019 1 EP CP EMA 2019-10-12 12:00:00 NR 19.6000 -163.300 PROVISIONAL 452 438 O_____________ tcvitals CP012019 19.6000 -163.300 35 1008 0 40 20 1012 60 30 11 338
2019286N20197 2019 1 EP CP EMA 2019-10-12 15:00:00 NR 20.1126 -163.512 PROVISIONAL 438 432 P_____________ CP012019 20.1126 -163.512 40 1005 0 45 25 1011 65 25 11 339
2019286N20197 2019 1 EP CP EMA 2019-10-12 18:00:00 NR 20.6000 -163.700 PROVISIONAL 433 428 O_____________ tcvitals CP012019 20.6000 -163.700 45 1003 0 50 30 40 1010 70 20 10 340
2019286N20197 2019 1 EP CP EMA 2019-10-12 21:00:00 NR 21.0373 -163.863 PROVISIONAL 438 433 P_____________ CP012019 21.0373 -163.863 43 1004 0 45 30 30 1010 65 20 9 335
2019286N20197 2019 1 EP CP EMA 2019-10-13 00:00:00 NR 21.4000 -164.100 PROVISIONAL 449 449 O_____________ tcvitals CP012019 21.4000 -164.100 41 1005 0 40 30 20 1010 60 20 9 317
2019286N20197 2019 1 EP CP EMA 2019-10-13 03:00:00 NR 21.6951 -164.512 PROVISIONAL 486 486 P_____________ CP012019 21.6951 -164.512 38 1005 0 40 30 20 1010 65 20 10 301
2019286N20197 2019 1 EP CP EMA 2019-10-13 06:00:00 NR 21.9000 -165.000 PROVISIONAL 536 536 O_____________ tcvitals CP012019 21.9000 -165.000 35 1006 0 40 30 20 1010 70 20 9 289
2019286N20197 2019 1 EP CP EMA 2019-10-13 09:00:00 NR 22.0075 -165.465 PROVISIONAL 587 587 P_____________ CP012019 22.0075 -165.465 35 1006 0 40 30 25 1010 70 17 9 283
2019286N20197 2019 1 EP CP EMA 2019-10-13 12:00:00 NR 22.1000 -165.900 PROVISIONAL 628 628 O_____________ tcvitals CP012019 22.1000 -165.900 35 1006 0 40 30 30 1010 70 15 8 289
2019286N20197 2019 1 EP CP EMA 2019-10-13 15:00:00 NR 22.2547 -166.250 PROVISIONAL 669 669 P_____________ CP012019 22.2547 -166.250 32 1006 -1 1010 65 15 8 302
2019286N20197 2019 1 EP CP EMA 2019-10-13 18:00:00 NR 22.5000 -166.600 PROVISIONAL 701 701 O_____________ tcvitals CP012019 22.5000 -166.600 29 1007 -1 1010 60 15 9 307
2019286N20197 2019 1 EP CP EMA 2019-10-13 21:00:00 NR 22.8252 -167.065 PROVISIONAL 755 755 P_____________ CP012019 22.8252 -167.065 29 1007 -1 1010 72 20 12 314
2019286N20197 2019 1 EP CP EMA 2019-10-14 00:00:00 NR 23.3000 -167.500 PROVISIONAL 803 803 O_____________ tcvitals CP012019 23.3000 -167.500 29 1008 -1 1010 85 25 13 329
2019286N20197 2019 1 EP CP EMA 2019-10-14 03:00:00 NR 23.9549 -167.795 PROVISIONAL 848 848 P_____________ CP012019 23.9549 -167.795 29 1008 -1 1010 72 32 15 342
2019286N20197 2019 1 EP CP EMA 2019-10-14 06:00:00 NR 24.7000 -168.000 PROVISIONAL 889 889 O_____________ tcvitals CP012019 24.7000 -168.000 29 1009 -1 1011 60 40 15 346
2019286N20197 2019 1 EP CP EMA 2019-10-14 09:00:00 NR 25.4075 -168.195 PROVISIONAL 935 935 P_____________ CP012019 25.4075 -168.195 29 1009 -1 1011 60 40 14 349
2019286N20197 2019 1 EP CP EMA 2019-10-14 12:00:00 NR 26.1000 -168.300 PROVISIONAL 976 976 O_____________ tcvitals CP012019 26.1000 -168.300 29 1010 -1 1012 60 40 14 358
2019286N20197 2019 1 EP CP EMA 2019-10-14 15:00:00 NR 26.7800 -168.258 PROVISIONAL 1013 1010 P_____________ CP012019 26.7800 -168.258 27 1010 -1 1012 60 40 13 4
2019286N20197 2019 1 EP CP EMA 2019-10-14 18:00:00 NR 27.4000 -168.200 PROVISIONAL 1040 1040 O_____________ tcvitals CP012019 27.4000 -168.200 25 1010 -1 1012 60 40 12 358
2019286N20197 2019 1 EP CP EMA 2019-10-14 21:00:00 NR 27.9525 -168.307 PROVISIONAL 1086 1086 P_____________ CP012019 27.9525 -168.307 25 1010 -1 1012 60 40 10 350
2019286N20197 2019 1 EP CP EMA 2019-10-15 00:00:00 NR 28.4000 -168.400 PROVISIONAL 1121 1121 O_____________ tcvitals CP012019 28.4000 -168.400 25 1010 -1 1012 60 40 8 0
2019286N20197 2019 1 EP CP EMA 2019-10-15 03:00:00 NR 28.7675 -168.293 PROVISIONAL 1141 1141 P_____________ CP012019 28.7675 -168.293 25 1012 -1 1014 60 40 6 16
2019286N20197 2019 1 EP CP EMA 2019-10-15 06:00:00 NR 29.0000 -168.200 PROVISIONAL 1148 1148 O_____________ tcvitals CP012019 29.0000 -168.200 25 1015 -1 1016 60 40 3 0
2019286N20197 2019 1 EP CP EMA 2019-10-15 09:00:00 NR 29.0970 -168.313 PROVISIONAL 1162 1162 P_____________ CP012019 29.0970 -168.313 25 1016 -1 1017 57 45 3 291
2019286N20197 2019 1 EP CP EMA 2019-10-15 12:00:00 NR 29.1000 -168.500 PROVISIONAL 1177 1177 O_____________ tcvitals CP012019 29.1000 -168.500 25 1017 -1 1018 55 50 3 271
2019286N20197 2019 1 EP CP EMA 2019-10-15 15:00:00 NR 29.1020 -168.634 PROVISIONAL 1185 1185 P_____________ CP012019 29.1020 -168.634 -1 3 264
2019286N20197 2019 1 EP CP EMA 2019-10-15 18:00:00 NR 29.0743 -168.788 PROVISIONAL 1200 1200 O_____________ tcvitals CP012019 29.0743 -168.788 -1 3 257
2019286N20197 2019 1 EP CP EMA 2019-10-15 21:00:00 NR 29.0294 -168.990 PROVISIONAL 1208 1208 P_____________ CP012019 29.0294 -168.990 -1 4 255
2019286N20197 2019 1 EP CP EMA 2019-10-16 00:00:00 NR 28.9760 -169.222 PROVISIONAL 1223 O_____________ tcvitals CP012019 28.9760 -169.222 -1 4 255

About IBTrACS Database

This database is a web-friendly format of International Best Track Archive for Climate Stewardship (IBTrACS), a global best track data archive curated by NOAA dating back to 1842.

Updated: 2021-12-08